Time;durP1;ratioP1;P1;durP2;ratioP2;P2;SDS_P1;SDS_P2;PMS_P1;PMS_P2;Temp;Humidity;BMP_temperature;BMP_pressure;BME280_temperature;BME280_humidity;BME280_pressure;Samples;Min_cycle;Max_cycle;Signal;HPM_P1;HPM_P2
2022/10/12 00:00:04;;;;;;;8.70;3.55;;;8.30;99.90;;;;;;5019423;28;20460;-63
2022/10/12 00:02:30;;;;;;;8.77;3.33;;;8.20;99.90;;;;;;5031789;28;20438;-63
2022/10/12 00:04:56;;;;;;;4.40;2.70;;;8.30;99.90;;;;;;5021567;28;20137;-62
2022/10/12 00:07:21;;;;;;;6.70;3.15;;;8.20;99.90;;;;;;5011808;28;20051;-62
2022/10/12 00:09:47;;;;;;;6.07;2.67;;;8.20;99.90;;;;;;5004700;28;20079;-62
2022/10/12 00:12:12;;;;;;;6.85;2.78;;;8.20;99.90;;;;;;5020157;28;20409;-64
2022/10/12 00:14:38;;;;;;;8.52;3.22;;;8.20;99.90;;;;;;5006433;28;20057;-62
2022/10/12 00:17:04;;;;;;;5.45;3.00;;;8.20;99.90;;;;;;5019564;28;20120;-62
2022/10/12 00:19:29;;;;;;;6.13;2.78;;;8.20;99.90;;;;;;5022872;28;20088;-62
2022/10/12 00:21:55;;;;;;;6.97;3.15;;;8.20;99.90;;;;;;5018686;28;20042;-63
2022/10/12 00:24:20;;;;;;;9.13;3.03;;;8.20;99.90;;;;;;5029729;28;20033;-62
2022/10/12 00:26:49;;;;;;;7.18;2.88;;;8.20;99.90;;;;;;5023215;28;20053;-62
2022/10/12 00:29:15;;;;;;;6.28;3.38;;;8.30;99.90;;;;;;5015465;28;20068;-64
2022/10/12 00:31:41;;;;;;;7.70;3.67;;;8.30;99.90;;;;;;5011408;28;20034;-62
2022/10/12 00:34:06;;;;;;;11.00;3.63;;;8.30;99.90;;;;;;5009209;28;20045;-62
2022/10/12 00:36:34;;;;;;;10.10;3.13;;;8.30;99.90;;;;;;5006942;28;20037;-64
2022/10/12 00:39:02;;;;;;;7.00;3.40;;;8.30;99.90;;;;;;5006880;28;20564;-64
2022/10/12 00:41:30;;;;;;;8.13;3.38;;;8.30;99.90;;;;;;5008596;28;20050;-64
2022/10/12 00:43:57;;;;;;;7.82;3.03;;;8.20;99.90;;;;;;5000070;28;20640;-64
2022/10/12 00:46:36;;;;;;;5.82;3.13;;;8.20;99.90;;;;;;5025662;28;20049;-64
2022/10/12 00:49:11;;;;;;;10.63;3.25;;;8.20;99.90;;;;;;5006590;28;20485;-64
2022/10/12 00:51:39;;;;;;;6.60;3.45;;;8.20;99.90;;;;;;5009889;28;20079;-64
2022/10/12 00:54:09;;;;;;;6.50;3.20;;;8.20;99.90;;;;;;5013094;28;20486;-64
2022/10/12 00:56:39;;;;;;;7.65;3.45;;;8.20;99.90;;;;;;5019698;28;20087;-64
2022/10/12 00:59:09;;;;;;;5.97;3.10;;;8.10;99.90;;;;;;5013016;28;20451;-64
2022/10/12 01:01:35;;;;;;;6.35;3.38;;;8.10;99.90;;;;;;5016447;28;20371;-65
2022/10/12 01:04:02;;;;;;;9.57;3.63;;;8.20;99.90;;;;;;5027510;28;20388;-64
2022/10/12 01:06:29;;;;;;;8.82;3.63;;;8.10;99.90;;;;;;5030278;28;20042;-64
2022/10/12 01:08:56;;;;;;;6.15;3.53;;;8.10;99.90;;;;;;5019044;28;20042;-64
2022/10/12 01:11:22;;;;;;;8.15;4.50;;;8.10;99.90;;;;;;5013628;28;20042;-64
2022/10/12 01:13:47;;;;;;;8.43;4.18;;;8.20;99.90;;;;;;5016020;28;20132;-64
2022/10/12 01:16:24;;;;;;;8.77;3.75;;;8.20;99.90;;;;;;5021316;28;20438;-64
2022/10/12 01:19:01;;;;;;;7.82;3.90;;;8.20;99.90;;;;;;5010556;28;20060;-64
2022/10/12 01:21:28;;;;;;;7.07;4.13;;;8.20;99.90;;;;;;5009951;28;20058;-64
2022/10/12 01:24:02;;;;;;;6.63;3.60;;;8.20;99.90;;;;;;5023348;28;20038;-63
2022/10/12 01:26:33;;;;;;;7.60;3.90;;;8.10;99.90;;;;;;5025037;28;20042;-62
2022/10/12 01:29:36;;;;;;;10.25;4.13;;;8.10;99.90;;;;;;5029745;28;20037;-62
2022/10/12 01:32:49;;;;;;;6.97;4.03;;;8.10;99.90;;;;;;5012089;28;20033;-62
2022/10/12 01:35:34;;;;;;;10.02;3.90;;;8.10;99.90;;;;;;4991854;28;20060;-62
2022/10/12 01:38:38;;;;;;;8.95;3.97;;;8.10;99.90;;;;;;5010854;28;20038;-62
2022/10/12 01:41:23;;;;;;;8.40;4.30;;;8.10;99.90;;;;;;5018290;28;20048;-62
2022/10/12 01:43:51;;;;;;;9.77;4.32;;;8.10;99.90;;;;;;5024477;28;20180;-62
2022/10/12 01:46:19;;;;;;;10.60;4.13;;;8.10;99.90;;;;;;5009903;28;20060;-62
2022/10/12 01:48:48;;;;;;;7.78;3.85;;;8.10;99.90;;;;;;5020317;28;20045;-62
2022/10/12 01:51:38;;;;;;;9.57;4.07;;;8.10;99.90;;;;;;5033602;28;20033;-62
2022/10/12 01:54:12;;;;;;;11.20;3.90;;;8.00;99.90;;;;;;5018557;28;20065;-63
2022/10/12 01:56:46;;;;;;;8.80;3.85;;;8.00;99.90;;;;;;5005938;28;20041;-62
2022/10/12 01:59:23;;;;;;;8.57;4.00;;;8.00;99.90;;;;;;5015116;28;20153;-62
2022/10/12 02:02:02;;;;;;;7.20;3.70;;;8.00;99.90;;;;;;5021094;28;20049;-62
2022/10/12 02:04:37;;;;;;;9.75;3.88;;;8.00;99.90;;;;;;5018083;28;20069;-62
2022/10/12 02:07:09;;;;;;;7.68;4.00;;;8.00;99.90;;;;;;5004383;28;20038;-62
2022/10/12 02:09:37;;;;;;;8.95;3.50;;;7.90;99.90;;;;;;5007693;28;20508;-62
2022/10/12 02:12:12;;;;;;;10.35;4.05;;;7.90;99.90;;;;;;5034080;28;20045;-62
2022/10/12 02:14:42;;;;;;;10.00;3.92;;;7.90;99.90;;;;;;5021594;28;20352;-62
2022/10/12 02:17:12;;;;;;;7.75;4.13;;;7.90;99.90;;;;;;5023638;28;20501;-63
2022/10/12 02:19:42;;;;;;;9.20;3.80;;;7.80;99.90;;;;;;5032799;28;20029;-64
2022/10/12 02:22:10;;;;;;;10.48;4.03;;;7.80;99.90;;;;;;5021734;28;20502;-64
2022/10/12 02:24:37;;;;;;;8.88;3.97;;;7.80;99.90;;;;;;5022364;28;20040;-62
2022/10/12 02:27:05;;;;;;;10.80;4.13;;;7.70;99.90;;;;;;5020630;28;20405;-62
2022/10/12 02:29:40;;;;;;;6.72;3.45;;;7.70;99.90;;;;;;5032488;28;20042;-62
2022/10/12 02:32:29;;;;;;;8.73;3.70;;;7.70;99.90;;;;;;5020761;28;20041;-62
2022/10/12 02:35:02;;;;;;;9.52;4.07;;;7.70;99.90;;;;;;5015794;28;20049;-63
2022/10/12 02:37:36;;;;;;;7.63;3.70;;;7.70;99.90;;;;;;5032626;28;20041;-62
2022/10/12 02:40:12;;;;;;;8.80;3.67;;;7.60;99.90;;;;;;5032724;28;20038;-62
2022/10/12 02:42:42;;;;;;;9.68;4.03;;;7.60;99.90;;;;;;5008661;28;20034;-62
2022/10/12 02:45:09;;;;;;;7.18;4.20;;;7.70;99.90;;;;;;5029960;28;20034;-65
2022/10/12 02:47:36;;;;;;;8.57;4.30;;;7.60;99.90;;;;;;5032837;28;20532;-62
2022/10/12 02:50:03;;;;;;;8.60;4.22;;;7.70;99.90;;;;;;5028600;28;20056;-62
2022/10/12 02:52:31;;;;;;;10.13;4.30;;;7.70;99.90;;;;;;5022737;28;20050;-62
2022/10/12 02:54:57;;;;;;;6.22;4.15;;;7.70;99.90;;;;;;5016544;28;20050;-62
2022/10/12 02:57:22;;;;;;;8.52;4.50;;;7.70;99.90;;;;;;5022107;28;20327;-62
2022/10/12 02:59:48;;;;;;;8.38;4.72;;;7.70;99.90;;;;;;5031058;28;20124;-62
2022/10/12 03:02:14;;;;;;;10.98;4.57;;;7.70;99.90;;;;;;5024537;28;20049;-62
2022/10/12 03:04:39;;;;;;;9.30;5.18;;;7.70;99.90;;;;;;5032606;28;20536;-63
2022/10/12 03:07:05;;;;;;;11.40;4.90;;;7.70;99.90;;;;;;5007324;28;20037;-62
2022/10/12 03:09:30;;;;;;;10.15;5.18;;;7.60;99.90;;;;;;5023204;28;20110;-62
2022/10/12 03:11:56;;;;;;;11.20;5.13;;;7.60;99.90;;;;;;5024396;28;20116;-62
2022/10/12 03:14:22;;;;;;;10.38;5.50;;;7.70;99.90;;;;;;5024005;28;20114;-63
2022/10/12 03:16:48;;;;;;;14.40;6.72;;;7.70;99.90;;;;;;4984556;28;20041;-64
2022/10/12 03:19:14;;;;;;;14.60;5.55;;;7.60;99.90;;;;;;5016526;28;20026;-62
2022/10/12 03:21:40;;;;;;;11.82;5.65;;;7.60;99.90;;;;;;5014382;28;20034;-62
2022/10/12 03:24:05;;;;;;;10.95;6.47;;;7.60;99.90;;;;;;5017069;28;20403;-62
2022/10/12 03:26:32;;;;;;;11.70;5.90;;;7.60;99.90;;;;;;5011505;28;20043;-62
2022/10/12 03:28:57;;;;;;;11.38;6.00;;;7.60;99.90;;;;;;5023857;28;20049;-62
2022/10/12 03:31:23;;;;;;;14.50;6.28;;;7.60;99.90;;;;;;4999978;28;20402;-62
2022/10/12 03:33:48;;;;;;;10.43;5.20;;;7.60;99.90;;;;;;5009960;28;20045;-62
2022/10/12 03:36:14;;;;;;;9.70;5.55;;;7.60;99.90;;;;;;5003030;28;20062;-62
2022/10/12 03:38:40;;;;;;;12.02;5.68;;;7.60;99.90;;;;;;5015874;28;20080;-62
2022/10/12 03:41:05;;;;;;;11.88;5.93;;;7.60;99.90;;;;;;5016700;28;20034;-62
2022/10/12 03:43:31;;;;;;;8.13;5.10;;;7.50;99.90;;;;;;5013371;28;20037;-62
2022/10/12 03:45:57;;;;;;;8.73;4.95;;;7.50;99.90;;;;;;5017913;28;20053;-62
2022/10/12 03:48:22;;;;;;;8.55;5.18;;;7.50;99.90;;;;;;5012062;28;20401;-62
2022/10/12 03:50:49;;;;;;;8.30;4.90;;;7.50;99.90;;;;;;5018087;28;20056;-62
2022/10/12 03:53:16;;;;;;;12.00;5.63;;;7.50;99.90;;;;;;5021704;28;20485;-62
2022/10/12 03:55:41;;;;;;;9.82;5.47;;;7.50;99.90;;;;;;5029418;28;20033;-62
2022/10/12 03:58:07;;;;;;;11.63;5.18;;;7.40;99.90;;;;;;5023818;28;20504;-62
2022/10/12 04:00:33;;;;;;;11.27;5.72;;;7.40;99.90;;;;;;5030165;28;20117;-64
2022/10/12 04:02:58;;;;;;;13.40;6.65;;;7.40;99.90;;;;;;5009182;28;20046;-62
2022/10/12 04:05:24;;;;;;;10.80;6.10;;;7.40;99.90;;;;;;5012148;28;20052;-62
2022/10/12 04:07:49;;;;;;;14.18;6.85;;;7.40;99.90;;;;;;5012566;28;20045;-62
2022/10/12 04:10:16;;;;;;;13.35;6.93;;;7.40;99.90;;;;;;5013302;28;20397;-62
2022/10/12 04:12:41;;;;;;;14.88;6.45;;;7.30;99.90;;;;;;5027430;28;20034;-62
2022/10/12 04:15:08;;;;;;;12.90;6.70;;;7.30;99.90;;;;;;5009281;28;20037;-62
2022/10/12 04:17:34;;;;;;;14.73;6.72;;;7.30;99.90;;;;;;5009538;28;20434;-62
2022/10/12 04:20:00;;;;;;;10.50;6.40;;;7.30;99.90;;;;;;5023064;28;20036;-63
2022/10/12 04:22:25;;;;;;;9.77;5.88;;;7.30;99.90;;;;;;5027154;28;20069;-63
2022/10/12 04:24:51;;;;;;;11.65;6.10;;;7.30;99.90;;;;;;5017412;28;20485;-62
2022/10/12 04:27:17;;;;;;;9.68;6.63;;;7.30;99.90;;;;;;5020258;28;20116;-62
2022/10/12 04:29:42;;;;;;;11.75;6.10;;;7.30;99.90;;;;;;5018195;28;20116;-61
2022/10/12 04:32:08;;;;;;;14.45;6.63;;;7.30;99.90;;;;;;5017859;28;20044;-62
2022/10/12 04:34:35;;;;;;;13.23;6.38;;;7.30;99.90;;;;;;5026882;28;20069;-65
2022/10/12 04:37:01;;;;;;;11.02;6.32;;;7.30;99.90;;;;;;5023351;28;20038;-63
2022/10/12 04:39:27;;;;;;;15.43;6.80;;;7.30;99.90;;;;;;5012742;28;20041;-62
2022/10/12 04:41:53;;;;;;;13.00;6.60;;;7.30;99.90;;;;;;5007779;28;20101;-62
2022/10/12 04:44:19;;;;;;;13.27;7.00;;;7.30;99.90;;;;;;5029602;28;20095;-62
2022/10/12 04:46:45;;;;;;;11.02;6.55;;;7.30;99.90;;;;;;5019547;28;20392;-62
2022/10/12 04:49:11;;;;;;;10.55;6.63;;;7.30;99.90;;;;;;5025085;28;20112;-64
2022/10/12 04:51:36;;;;;;;12.25;6.63;;;7.20;99.90;;;;;;5029577;28;20128;-62
2022/10/12 04:54:02;;;;;;;11.57;6.20;;;7.20;99.90;;;;;;5022058;28;20124;-64
2022/10/12 04:56:28;;;;;;;10.65;6.40;;;7.10;99.90;;;;;;5028425;28;20038;-62
2022/10/12 04:58:53;;;;;;;10.40;6.32;;;7.10;99.90;;;;;;5030031;28;20466;-62
2022/10/12 05:01:19;;;;;;;9.52;6.35;;;7.10;99.90;;;;;;5022099;28;20053;-62
2022/10/12 05:03:45;;;;;;;13.70;6.20;;;7.00;99.90;;;;;;5019005;28;20497;-62
2022/10/12 05:06:10;;;;;;;10.25;6.07;;;7.00;99.90;;;;;;5023572;28;20064;-65
2022/10/12 05:08:36;;;;;;;15.75;7.05;;;6.90;99.90;;;;;;5020821;28;20048;-62
2022/10/12 05:11:02;;;;;;;12.85;6.53;;;6.90;99.90;;;;;;5023214;28;20513;-62
2022/10/12 05:13:28;;;;;;;10.45;6.72;;;6.90;99.90;;;;;;5030023;28;20040;-62
2022/10/12 05:15:54;;;;;;;13.23;6.85;;;6.90;99.90;;;;;;5030370;28;20046;-62
2022/10/12 05:18:20;;;;;;;10.82;6.35;;;6.90;99.90;;;;;;5028260;28;20391;-65
2022/10/12 05:20:45;;;;;;;10.75;6.47;;;6.90;99.90;;;;;;5018405;28;20053;-62
2022/10/12 05:23:11;;;;;;;13.23;7.05;;;6.90;99.90;;;;;;5026816;28;20034;-64
2022/10/12 05:25:37;;;;;;;9.77;6.50;;;6.90;99.90;;;;;;5012723;28;20064;-62
2022/10/12 05:28:03;;;;;;;9.27;6.30;;;6.90;99.90;;;;;;5023010;28;20041;-61
2022/10/12 05:30:29;;;;;;;10.02;6.55;;;6.90;99.90;;;;;;5027224;28;20520;-62
2022/10/12 05:32:55;;;;;;;12.55;6.60;;;6.90;99.90;;;;;;5007178;28;20077;-62
2022/10/12 05:35:20;;;;;;;10.85;6.13;;;6.90;99.90;;;;;;5021691;28;20049;-62
2022/10/12 05:37:46;;;;;;;12.18;6.32;;;6.80;99.90;;;;;;5024869;28;20048;-62
2022/10/12 05:40:12;;;;;;;10.65;6.28;;;6.80;99.90;;;;;;5027723;28;20095;-63
2022/10/12 05:42:37;;;;;;;13.45;6.30;;;6.80;99.90;;;;;;5028623;28;20033;-64
2022/10/12 05:45:04;;;;;;;10.40;6.35;;;6.80;99.90;;;;;;5022816;28;20061;-62
2022/10/12 05:47:29;;;;;;;13.10;6.65;;;6.80;99.90;;;;;;5027465;28;20038;-63
2022/10/12 05:49:55;;;;;;;13.18;6.75;;;6.80;99.90;;;;;;5029432;28;20421;-62
2022/10/12 05:52:21;;;;;;;9.98;6.78;;;6.80;99.90;;;;;;5025358;28;20076;-63
2022/10/12 05:54:46;;;;;;;13.13;6.97;;;6.80;99.90;;;;;;5024507;28;20046;-62
2022/10/12 05:57:14;;;;;;;9.77;6.30;;;6.70;99.90;;;;;;5025507;28;20092;-62
2022/10/12 05:59:42;;;;;;;11.05;6.60;;;6.70;99.90;;;;;;5022079;28;20041;-62
2022/10/12 06:02:13;;;;;;;9.38;6.05;;;6.70;99.90;;;;;;5012413;28;20049;-63
2022/10/12 06:04:39;;;;;;;13.65;6.75;;;6.70;99.90;;;;;;5025946;28;20029;-62
2022/10/12 06:07:04;;;;;;;13.07;6.72;;;6.60;99.90;;;;;;5022853;28;20041;-63
2022/10/12 06:09:30;;;;;;;12.75;6.35;;;6.60;99.90;;;;;;5017974;28;20409;-62
2022/10/12 06:11:55;;;;;;;14.30;7.25;;;6.60;99.90;;;;;;5030146;28;20131;-62
2022/10/12 06:14:21;;;;;;;12.75;7.53;;;6.60;99.90;;;;;;5021728;28;20490;-62
2022/10/12 06:16:47;;;;;;;14.23;7.50;;;6.60;99.90;;;;;;5024828;28;20121;-62
2022/10/12 06:19:12;;;;;;;17.08;7.88;;;6.60;99.90;;;;;;5020774;28;20033;-63
2022/10/12 06:21:38;;;;;;;15.82;8.30;;;6.60;99.90;;;;;;5025431;28;20049;-62
2022/10/12 06:24:05;;;;;;;17.83;8.85;;;6.60;99.90;;;;;;5029796;28;20049;-62
2022/10/12 06:26:31;;;;;;;15.73;8.52;;;6.60;99.90;;;;;;5025350;28;20050;-63
2022/10/12 06:28:56;;;;;;;15.35;8.80;;;6.60;99.90;;;;;;5021310;28;20129;-62
2022/10/12 06:31:22;;;;;;;17.05;8.50;;;6.60;99.90;;;;;;5029534;28;20049;-62
2022/10/12 06:33:49;;;;;;;17.00;8.88;;;6.60;99.90;;;;;;5026435;28;20038;-62
2022/10/12 06:36:15;;;;;;;15.82;8.68;;;6.60;99.90;;;;;;5007308;28;20049;-62
2022/10/12 06:38:41;;;;;;;18.70;7.88;;;6.60;99.90;;;;;;5022378;28;20379;-64
2022/10/12 06:41:06;;;;;;;14.10;7.68;;;6.60;99.90;;;;;;5017807;28;20091;-62
2022/10/12 06:43:32;;;;;;;12.35;6.60;;;6.60;99.90;;;;;;5019069;28;20076;-62
2022/10/12 06:46:00;;;;;;;11.93;7.13;;;6.60;99.90;;;;;;5015358;28;20091;-62
2022/10/12 06:48:26;;;;;;;13.02;6.85;;;6.50;99.90;;;;;;5032457;28;20045;-64
2022/10/12 06:50:51;;;;;;;13.15;7.25;;;6.60;99.90;;;;;;5031922;28;20401;-65
2022/10/12 06:53:17;;;;;;;11.95;6.97;;;6.60;99.90;;;;;;5014034;28;20402;-62
2022/10/12 06:55:42;;;;;;;12.63;7.13;;;6.60;99.90;;;;;;5029152;28;20025;-61
2022/10/12 06:58:08;;;;;;;13.90;7.68;;;6.60;99.90;;;;;;5024962;28;20593;-62
2022/10/12 07:00:34;;;;;;;14.68;8.35;;;6.60;99.90;;;;;;5026627;28;20046;-63
2022/10/12 07:02:59;;;;;;;18.35;8.25;;;6.70;99.90;;;;;;5023784;28;20058;-61
2022/10/12 07:05:26;;;;;;;15.10;8.10;;;6.70;99.90;;;;;;5028991;28;20501;-62
2022/10/12 07:07:52;;;;;;;15.30;8.20;;;6.80;99.90;;;;;;5021236;28;20453;-62
2022/10/12 07:10:18;;;;;;;19.38;8.48;;;6.80;99.90;;;;;;5008037;28;20494;-63
2022/10/12 07:12:43;;;;;;;15.75;8.50;;;6.90;99.90;;;;;;5014549;28;20038;-62
2022/10/12 07:15:09;;;;;;;22.33;8.30;;;7.00;99.90;;;;;;5026704;28;20033;-62
2022/10/12 07:17:35;;;;;;;15.57;8.50;;;7.10;99.90;;;;;;5027750;28;20034;-62
2022/10/12 07:20:01;;;;;;;15.07;8.48;;;7.20;99.90;;;;;;5024272;28;20042;-62
2022/10/12 07:22:26;;;;;;;18.70;8.45;;;7.30;99.90;;;;;;5039621;23;20041;-60
2022/10/12 07:24:52;;;;;;;22.98;9.38;;;7.40;99.90;;;;;;5028411;28;20401;-59
2022/10/12 07:27:18;;;;;;;21.05;8.65;;;7.50;99.90;;;;;;5033641;28;20545;-60
2022/10/12 07:29:43;;;;;;;19.15;9.48;;;7.60;99.90;;;;;;5045049;28;20496;-60
2022/10/12 07:32:09;;;;;;;16.90;8.82;;;7.60;99.90;;;;;;5049641;28;20157;-62
2022/10/12 07:34:35;;;;;;;16.40;8.68;;;7.70;99.90;;;;;;5048005;28;20037;-61
2022/10/12 07:37:00;;;;;;;14.25;7.97;;;7.80;99.90;;;;;;5048651;28;20029;-62
2022/10/12 07:39:26;;;;;;;15.13;7.50;;;7.80;99.90;;;;;;5035230;28;20528;-62
2022/10/12 07:41:52;;;;;;;21.33;7.93;;;7.90;99.90;;;;;;5041181;28;20045;-62
2022/10/12 07:44:19;;;;;;;18.83;7.95;;;8.00;99.90;;;;;;5049522;28;20040;-60
2022/10/12 07:46:45;;;;;;;18.75;7.43;;;8.00;99.90;;;;;;5029387;28;20045;-60
2022/10/12 07:49:15;;;;;;;13.50;7.80;;;8.00;99.90;;;;;;5032347;28;20045;-63
2022/10/12 07:51:41;;;;;;;15.13;7.43;;;8.10;99.90;;;;;;5017754;28;20036;-59
2022/10/12 07:54:07;;;;;;;20.00;7.20;;;8.20;99.90;;;;;;5043253;28;20098;-62
2022/10/12 07:56:33;;;;;;;18.83;7.53;;;8.20;99.90;;;;;;5035646;28;20037;-62
2022/10/12 07:58:58;;;;;;;15.43;7.25;;;8.20;99.90;;;;;;5027811;28;20543;-59
2022/10/12 08:01:28;;;;;;;16.92;6.40;;;8.20;99.90;;;;;;5032057;28;20098;-62
2022/10/12 08:03:55;;;;;;;15.18;6.72;;;8.30;99.90;;;;;;5046324;28;20040;-60
2022/10/12 08:06:23;;;;;;;13.85;6.93;;;8.30;99.90;;;;;;5043182;28;20032;-60
2022/10/12 08:08:49;;;;;;;15.55;6.90;;;8.40;99.90;;;;;;5046085;28;20535;-60
2022/10/12 08:11:16;;;;;;;12.05;6.55;;;8.40;99.90;;;;;;5042921;28;20456;-59
2022/10/12 08:13:42;;;;;;;12.70;6.45;;;8.50;99.90;;;;;;5045694;28;20044;-62
2022/10/12 08:16:11;;;;;;;15.02;6.30;;;8.50;99.90;;;;;;5051460;28;20045;-64
2022/10/12 08:18:37;;;;;;;16.98;6.18;;;8.60;99.90;;;;;;5032123;28;20029;-61
2022/10/12 08:21:05;;;;;;;15.32;6.47;;;8.60;99.90;;;;;;5029316;28;20106;-61
2022/10/12 08:23:30;;;;;;;16.63;6.50;;;8.60;99.90;;;;;;5026968;28;20071;-61
2022/10/12 08:25:57;;;;;;;14.95;6.90;;;8.60;99.90;;;;;;5045081;28;20046;-63
2022/10/12 08:28:23;;;;;;;13.07;6.10;;;8.60;99.90;;;;;;5034970;28;20044;-60
2022/10/12 08:30:49;;;;;;;15.85;6.57;;;8.70;99.90;;;;;;5033621;28;20128;-63
2022/10/12 08:33:16;;;;;;;12.73;6.70;;;8.70;99.90;;;;;;5020645;28;20037;-63
2022/10/12 08:35:43;;;;;;;13.40;6.38;;;8.70;99.90;;;;;;5050928;28;20481;-61
2022/10/12 08:38:11;;;;;;;15.88;6.10;;;8.70;99.90;;;;;;5028856;28;20515;-62
2022/10/12 08:41:12;;;;;;;15.63;6.93;;;8.70;99.90;;;;;;5044186;28;20041;-64
2022/10/12 08:43:40;;;;;;;14.23;6.50;;;8.70;99.90;;;;;;5017081;28;20476;-63
2022/10/12 08:46:06;;;;;;;13.40;5.88;;;8.70;99.90;;;;;;5038906;28;20493;-65
2022/10/12 08:48:35;;;;;;;17.83;6.47;;;8.60;99.90;;;;;;5015644;28;20049;-64
2022/10/12 08:51:13;;;;;;;12.65;6.00;;;8.70;99.90;;;;;;5032731;28;20045;-64
2022/10/12 08:53:46;;;;;;;13.10;5.97;;;8.70;99.90;;;;;;5038305;28;20026;-64
2022/10/12 08:56:16;;;;;;;12.80;6.28;;;8.70;99.90;;;;;;5046176;28;20037;-63
2022/10/12 08:58:43;;;;;;;12.90;6.30;;;8.70;99.90;;;;;;5046364;28;20065;-62
2022/10/12 09:01:18;;;;;;;16.92;6.38;;;8.70;99.90;;;;;;5025637;28;20489;-63
2022/10/12 09:04:06;;;;;;;14.23;7.43;;;8.80;99.90;;;;;;5042107;28;20044;-63
2022/10/12 09:07:05;;;;;;;14.02;5.93;;;8.80;99.90;;;;;;5020352;28;20044;-64
2022/10/12 09:09:43;;;;;;;14.60;5.90;;;8.90;99.90;;;;;;5049949;28;20048;-63
2022/10/12 09:12:15;;;;;;;17.42;6.25;;;9.00;99.90;;;;;;5046169;28;20036;-62
2022/10/12 09:14:42;;;;;;;14.32;5.90;;;9.10;99.90;;;;;;5049083;28;20487;-64
2022/10/12 09:17:42;;;;;;;13.82;6.13;;;9.10;99.90;;;;;;5049504;28;20044;-64
2022/10/12 09:20:14;;;;;;;17.48;6.80;;;9.20;99.90;;;;;;5025918;28;20037;-63
2022/10/12 09:22:43;;;;;;;13.95;5.90;;;9.20;99.90;;;;;;5026894;28;20451;-63
2022/10/12 09:25:17;;;;;;;13.32;6.07;;;9.30;99.90;;;;;;5047391;28;20449;-63
2022/10/12 09:27:45;;;;;;;15.63;5.97;;;9.30;99.90;;;;;;5044791;28;20480;-62
2022/10/12 09:30:17;;;;;;;11.30;5.57;;;9.40;99.90;;;;;;5036644;28;20052;-62
2022/10/12 09:33:03;;;;;;;18.55;5.95;;;9.50;99.90;;;;;;5025977;28;20041;-63
2022/10/12 09:35:28;;;;;;;16.48;5.75;;;9.60;99.90;;;;;;5026432;28;20040;-63
2022/10/12 09:37:54;;;;;;;14.18;6.10;;;9.60;99.90;;;;;;5038771;28;20045;-64
2022/10/12 09:40:27;;;;;;;16.98;6.47;;;9.70;99.90;;;;;;5031512;28;20045;-62
2022/10/12 09:42:53;;;;;;;;;;;9.80;99.90;;;;;;5049744;28;20450;-63
2022/10/12 09:45:21;;;;;;;16.65;5.90;;;9.80;99.90;;;;;;5037428;28;19917;-64
2022/10/12 09:48:14;;;;;;;13.40;6.35;;;9.90;99.90;;;;;;5032591;28;20114;-63
2022/10/12 09:50:43;;;;;;;15.63;5.90;;;10.00;99.90;;;;;;5025415;28;20581;-63
2022/10/12 09:53:33;;;;;;;14.73;6.30;;;10.00;99.90;;;;;;5046414;28;20044;-64
2022/10/12 09:56:22;;;;;;;14.48;6.07;;;10.10;99.90;;;;;;5047260;28;20098;-63
2022/10/12 09:58:55;;;;;;;13.40;5.75;;;10.20;99.90;;;;;;5045107;28;20042;-63
2022/10/12 10:01:26;;;;;;;12.60;5.70;;;10.30;99.90;;;;;;5046635;28;20073;-63
2022/10/12 10:04:14;;;;;;;13.60;5.65;;;10.40;99.90;;;;;;5022612;28;20120;-63
2022/10/12 10:06:43;;;;;;;17.58;5.93;;;10.50;99.90;;;;;;5048328;28;20029;-64
2022/10/12 10:09:27;;;;;;;12.05;5.45;;;10.60;99.90;;;;;;5045164;28;20045;-64
2022/10/12 10:11:53;;;;;;;12.75;5.80;;;10.80;99.90;;;;;;5035560;28;20136;-62
2022/10/12 10:14:18;;;;;;;18.88;6.03;;;10.90;99.90;;;;;;5036140;28;20195;-61
2022/10/12 10:16:53;;;;;;;15.93;6.15;;;10.90;99.90;;;;;;5048488;28;20037;-62
2022/10/12 10:19:23;;;;;;;13.90;5.38;;;11.00;99.90;;;;;;5028093;28;20037;-63
2022/10/12 10:21:50;;;;;;;12.25;5.93;;;11.20;99.90;;;;;;5042948;28;20037;-63
2022/10/12 10:24:30;;;;;;;13.30;5.22;;;11.30;99.90;;;;;;5053287;28;20037;-62
2022/10/12 10:26:58;;;;;;;16.85;5.30;;;11.60;99.90;;;;;;5045352;28;20493;-62
2022/10/12 10:29:44;;;;;;;11.77;5.38;;;11.70;99.90;;;;;;5037005;28;20171;-63
2022/10/12 10:32:28;;;;;;;11.30;5.75;;;11.80;99.90;;;;;;5023592;28;20124;-63
2022/10/12 10:35:13;;;;;;;11.25;4.88;;;11.90;99.90;;;;;;5053115;28;20488;-62
2022/10/12 10:37:58;;;;;;;10.82;5.05;;;12.00;99.90;;;;;;5053675;28;20400;-63
2022/10/12 10:40:48;;;;;;;11.85;4.60;;;12.10;99.90;;;;;;5048582;28;20044;-63
2022/10/12 10:43:34;;;;;;;12.35;4.90;;;12.20;99.90;;;;;;5041842;28;20068;-61
2022/10/12 10:46:24;;;;;;;10.88;4.35;;;12.30;99.90;;;;;;5052484;28;20133;-61
2022/10/12 10:49:07;;;;;;;10.75;4.50;;;12.40;99.90;;;;;;5045481;28;20049;-65
2022/10/12 10:51:43;;;;;;;9.13;4.35;;;12.50;99.90;;;;;;5049420;28;20045;-62
2022/10/12 10:54:14;;;;;;;14.18;5.40;;;12.50;99.90;;;;;;5046460;28;20404;-62
2022/10/12 10:56:42;;;;;;;8.50;4.50;;;12.60;99.90;;;;;;5052930;28;20119;-63
2022/10/12 10:59:37;;;;;;;13.73;4.90;;;12.80;99.90;;;;;;5046015;28;20069;-62
2022/10/12 11:02:24;;;;;;;9.35;4.32;;;13.00;99.90;;;;;;5052994;28;20076;-64
2022/10/12 11:05:15;;;;;;;10.93;3.97;;;13.10;99.90;;;;;;5049873;28;20094;-64
2022/10/12 11:07:57;;;;;;;10.10;3.60;;;13.20;99.90;;;;;;5037938;28;20090;-64
2022/10/12 11:10:29;;;;;;;10.50;3.92;;;13.20;99.90;;;;;;5046813;28;20424;-64
2022/10/12 11:13:05;;;;;;;10.00;3.70;;;13.30;99.90;;;;;;5015113;28;20412;-62
2022/10/12 11:15:45;;;;;;;13.50;4.38;;;13.30;99.90;;;;;;5049827;28;20094;-65
2022/10/12 11:18:17;;;;;;;8.90;3.33;;;13.40;99.90;;;;;;5051874;28;20041;-64
2022/10/12 11:20:56;;;;;;;6.65;3.05;;;13.50;99.90;;;;;;5040628;28;20045;-64
2022/10/12 11:23:42;;;;;;;10.18;3.75;;;13.50;99.90;;;;;;5041049;28;20124;-64
2022/10/12 11:26:34;;;;;;;11.13;3.45;;;13.50;99.90;;;;;;5025764;28;20073;-64
2022/10/12 11:29:00;;;;;;;9.48;3.35;;;13.60;99.90;;;;;;5032476;28;20045;-65
2022/10/12 11:31:29;;;;;;;13.85;3.75;;;13.70;99.90;;;;;;5033313;28;20056;-64
2022/10/12 11:33:59;;;;;;;10.02;3.83;;;13.70;99.90;;;;;;5046804;28;20044;-65
2022/10/12 11:36:27;;;;;;;10.38;3.50;;;13.80;99.90;;;;;;5026109;28;20128;-62
2022/10/12 11:39:04;;;;;;;11.32;3.67;;;13.90;99.90;;;;;;5033655;28;20048;-64
2022/10/12 11:41:32;;;;;;;11.50;3.70;;;14.00;99.90;;;;;;5026766;28;20040;-63
2022/10/12 11:44:18;;;;;;;12.73;3.80;;;14.10;99.90;;;;;;5030553;28;20045;-64
2022/10/12 11:46:57;;;;;;;11.65;4.47;;;14.10;99.90;;;;;;5044494;28;20103;-64
2022/10/12 11:49:31;;;;;;;11.43;4.20;;;14.20;99.90;;;;;;5041453;28;20102;-64
2022/10/12 11:52:04;;;;;;;9.13;4.13;;;14.20;99.90;;;;;;5052053;28;20041;-63
2022/10/12 11:54:32;;;;;;;9.77;3.97;;;14.20;99.90;;;;;;5033993;28;20136;-63
2022/10/12 11:57:07;;;;;;;11.70;4.47;;;14.30;99.90;;;;;;5030621;28;20493;-63
2022/10/12 11:59:43;;;;;;;10.82;4.35;;;14.20;99.90;;;;;;5041723;28;20424;-65
2022/10/12 12:02:25;;;;;;;9.02;4.10;;;14.30;99.90;;;;;;5051868;28;20033;-64
2022/10/12 12:04:51;;;;;;;8.27;4.13;;;14.30;99.90;;;;;;5050132;28;20041;-63
2022/10/12 12:07:42;;;;;;;11.48;4.57;;;14.40;99.90;;;;;;5044135;28;20037;-64
2022/10/12 12:10:35;;;;;;;13.07;4.80;;;14.40;99.90;;;;;;5040703;28;20052;-64
2022/10/12 12:13:11;;;;;;;11.32;4.60;;;14.60;99.90;;;;;;5051371;28;20115;-62
2022/10/12 12:15:46;;;;;;;10.63;4.38;;;14.50;99.90;;;;;;5033546;28;20049;-65
2022/10/12 12:18:20;;;;;;;10.90;4.35;;;14.60;99.90;;;;;;5033183;28;20044;-62
2022/10/12 12:20:45;;;;;;;13.13;5.22;;;14.60;99.90;;;;;;5030250;28;20052;-62
2022/10/12 12:23:23;;;;;;;14.80;5.22;;;14.70;99.90;;;;;;5022222;28;20045;-63
2022/10/12 12:26:09;;;;;;;10.25;4.50;;;14.70;99.90;;;;;;5030452;28;20068;-63
2022/10/12 12:29:08;;;;;;;13.40;4.35;;;14.70;99.90;;;;;;5010734;28;20071;-62
2022/10/12 12:31:34;;;;;;;9.70;4.13;;;14.80;99.90;;;;;;5039288;28;20041;-64
2022/10/12 12:34:04;;;;;;;12.50;4.00;;;14.80;99.90;;;;;;5033184;28;20524;-64
2022/10/12 12:36:35;;;;;;;13.48;4.95;;;14.80;99.90;;;;;;5033282;28;20044;-62
2022/10/12 12:39:03;;;;;;;12.05;4.45;;;14.90;99.90;;;;;;5027749;28;20048;-63
2022/10/12 12:41:51;;;;;;;13.82;4.53;;;14.90;99.90;;;;;;5050025;28;20052;-64
2022/10/12 12:44:39;;;;;;;11.38;4.20;;;14.90;99.90;;;;;;5048435;28;20559;-65
2022/10/12 12:47:08;;;;;;;13.10;4.47;;;14.90;99.90;;;;;;5027409;28;20079;-64
2022/10/12 12:49:36;;;;;;;11.40;5.32;;;14.90;99.90;;;;;;5048294;28;20043;-62
2022/10/12 12:52:24;;;;;;;12.95;4.53;;;14.90;99.90;;;;;;5028433;28;20056;-64
2022/10/12 12:55:14;;;;;;;11.48;4.70;;;14.90;99.90;;;;;;5005660;28;20053;-62
2022/10/12 12:57:58;;;;;;;11.77;4.40;;;14.90;99.90;;;;;;5040115;28;20048;-64
2022/10/12 13:00:30;;;;;;;16.52;4.88;;;15.00;99.90;;;;;;5043700;28;20063;-62
2022/10/12 13:02:58;;;;;;;13.70;4.65;;;15.00;99.90;;;;;;5033353;28;20504;-63
2022/10/12 13:05:52;;;;;;;14.10;5.43;;;15.00;99.90;;;;;;5024351;28;20061;-64